createdAt,value
2022-08-23T00:00:18.027Z,2.53
2022-08-23T00:02:46.770Z,2.17
2022-08-23T00:05:17.352Z,2.53
2022-08-23T00:07:45.556Z,2.40
2022-08-23T00:10:17.096Z,2.37
2022-08-23T00:12:47.985Z,2.23
2022-08-23T00:15:21.269Z,2.73
2022-08-23T00:17:51.675Z,2.60
2022-08-23T00:20:21.238Z,2.60
2022-08-23T00:22:49.528Z,2.57
2022-08-23T00:25:20.111Z,2.60
2022-08-23T00:27:54.686Z,2.40
2022-08-23T00:30:26.435Z,2.73
2022-08-23T00:32:57.879Z,2.90
2022-08-23T00:35:27.530Z,2.70
2022-08-23T00:38:31.796Z,2.33
2022-08-23T00:40:51.069Z,3.10
2022-08-23T00:43:42.504Z,2.70
2022-08-23T00:46:36.137Z,2.80
2022-08-23T00:49:11.992Z,2.63
2022-08-23T00:51:53.311Z,2.90
2022-08-23T00:54:24.450Z,3.00
2022-08-23T00:56:56.852Z,3.83
2022-08-23T00:59:26.595Z,3.30
2022-08-23T01:01:57.443Z,3.17
2022-08-23T01:04:31.944Z,2.87
2022-08-23T01:07:05.539Z,2.90
2022-08-23T01:09:38.574Z,3.17
2022-08-23T01:12:10.942Z,3.20
2022-08-23T01:14:45.396Z,3.20
2022-08-23T01:17:19.143Z,3.17
2022-08-23T01:19:58.470Z,2.90
2022-08-23T01:22:35.305Z,3.03
2022-08-23T01:25:10.139Z,3.03
2022-08-23T01:27:41.930Z,2.87
2022-08-23T01:30:18.088Z,3.10
2022-08-23T01:32:50.259Z,3.03
2022-08-23T01:37:55.809Z,3.40
2022-08-23T01:40:25.607Z,3.00
2022-08-23T01:42:53.819Z,3.13
2022-08-23T01:45:24.859Z,2.93
2022-08-23T01:47:53.107Z,2.73
2022-08-23T01:50:22.412Z,3.37
2022-08-23T01:52:50.811Z,2.80
2022-08-23T01:55:21.984Z,2.80
2022-08-23T01:57:56.889Z,3.13
2022-08-23T02:00:27.867Z,3.03
2022-08-23T02:02:59.518Z,3.03
2022-08-23T02:05:28.581Z,3.13
2022-08-23T02:07:57.056Z,3.13
2022-08-23T02:10:25.198Z,3.20
2022-08-23T02:12:57.573Z,3.10
2022-08-23T02:15:26.349Z,3.23
2022-08-23T02:17:54.866Z,2.87
2022-08-23T02:20:25.483Z,3.30
2022-08-23T02:22:55.975Z,3.10
2022-08-23T02:25:24.162Z,3.67
2022-08-23T02:27:52.320Z,2.77
2022-08-23T02:30:22.099Z,2.83
2022-08-23T02:32:51.026Z,3.03
2022-08-23T02:35:20.172Z,3.07
2022-08-23T02:37:50.620Z,2.90
2022-08-23T02:40:18.992Z,2.67
2022-08-23T02:42:49.890Z,2.90
2022-08-23T02:45:19.348Z,3.20
2022-08-23T02:47:52.691Z,3.20
2022-08-23T02:50:26.102Z,3.53
2022-08-23T02:52:54.919Z,2.93
2022-08-23T02:55:23.774Z,3.23
2022-08-23T02:57:51.998Z,2.80
2022-08-23T03:00:21.454Z,2.83
2022-08-23T03:02:53.550Z,2.87
2022-08-23T03:05:22.101Z,3.03
2022-08-23T03:07:50.704Z,3.10
2022-08-23T03:10:18.955Z,3.57
2022-08-23T03:12:53.670Z,3.00
2022-08-23T03:15:22.162Z,3.20
2022-08-23T03:17:50.555Z,3.00
2022-08-23T03:20:20.824Z,2.97
2022-08-23T03:22:54.686Z,2.90
2022-08-23T03:25:27.342Z,3.30
2022-08-23T03:28:09.104Z,3.33
2022-08-23T03:30:43.183Z,2.90
2022-08-23T03:33:14.730Z,2.77
2022-08-23T03:35:45.139Z,2.77
2022-08-23T03:38:17.167Z,3.20
2022-08-23T03:40:52.359Z,3.17
2022-08-23T03:43:21.311Z,2.83
2022-08-23T03:45:51.143Z,3.37
2022-08-23T03:48:19.399Z,3.30
2022-08-23T03:50:49.083Z,3.20
2022-08-23T03:53:20.503Z,2.90
2022-08-23T03:55:48.741Z,3.30
2022-08-23T03:58:19.317Z,3.13
2022-08-23T04:00:47.590Z,2.90
2022-08-23T04:03:15.958Z,3.17
2022-08-23T04:06:06.610Z,2.83
2022-08-23T04:08:37.497Z,2.93
2022-08-23T04:11:08.041Z,3.17
2022-08-23T04:13:39.173Z,3.10
2022-08-23T04:16:10.009Z,3.37
2022-08-23T04:18:39.011Z,3.27
2022-08-23T04:21:16.528Z,3.00
2022-08-23T04:23:47.840Z,2.97
2022-08-23T04:26:18.579Z,3.60
2022-08-23T04:28:48.893Z,3.23
2022-08-23T04:31:19.147Z,3.07
2022-08-23T04:33:52.467Z,3.33
2022-08-23T04:36:23.524Z,3.43
2022-08-23T04:38:53.726Z,2.90
2022-08-23T04:41:39.652Z,3.17
2022-08-23T04:44:08.048Z,3.40
2022-08-23T04:46:36.596Z,3.50
2022-08-23T04:49:05.050Z,3.47
2022-08-23T04:51:34.643Z,3.20
2022-08-23T04:54:05.913Z,3.00
2022-08-23T04:56:42.843Z,3.73
2022-08-23T04:59:12.973Z,3.03
2022-08-23T05:01:45.609Z,3.13
2022-08-23T05:04:15.619Z,2.83
2022-08-23T05:06:46.389Z,3.07
2022-08-23T05:09:20.460Z,3.00
2022-08-23T05:11:49.598Z,2.70
2022-08-23T05:14:18.903Z,2.83
2022-08-23T05:16:47.656Z,3.00
2022-08-23T05:19:16.154Z,3.17
2022-08-23T05:21:47.664Z,3.23
2022-08-23T05:24:16.991Z,2.93
2022-08-23T05:26:47.748Z,3.27
2022-08-23T05:29:16.287Z,2.80
2022-08-23T05:31:49.887Z,2.80
2022-08-23T05:34:22.948Z,2.77
2022-08-23T05:37:00.574Z,2.77
2022-08-23T05:39:36.003Z,2.73
2022-08-23T05:42:09.495Z,2.80
2022-08-23T05:44:40.444Z,2.97
2022-08-23T05:47:15.590Z,2.60
2022-08-23T05:50:04.342Z,2.77
2022-08-23T05:52:37.729Z,2.80
2022-08-23T05:55:07.105Z,2.87
2022-08-23T05:57:57.195Z,3.20
2022-08-23T06:00:25.602Z,2.80
2022-08-23T06:03:08.393Z,2.27
2022-08-23T06:05:41.316Z,3.30
2022-08-23T06:08:13.462Z,2.57
2022-08-23T06:10:42.492Z,2.73
2022-08-23T06:13:24.303Z,2.90
2022-08-23T06:15:52.505Z,2.77
2022-08-23T06:18:20.928Z,2.80
2022-08-23T06:20:49.875Z,2.97
2022-08-23T06:23:26.596Z,3.10
2022-08-23T06:25:54.867Z,2.60
2022-08-23T06:28:25.711Z,2.87
2022-08-23T06:30:56.225Z,3.03
2022-08-23T06:33:33.809Z,2.57
2022-08-23T06:36:07.251Z,2.67
2022-08-23T06:38:55.152Z,2.53
2022-08-23T06:42:00.747Z,2.63
2022-08-23T06:44:32.574Z,2.90
2022-08-23T06:47:27.100Z,3.00
2022-08-23T06:49:58.222Z,2.87
2022-08-23T06:52:56.011Z,2.47
2022-08-23T06:56:00.771Z,2.43
2022-08-23T06:58:40.334Z,2.40
2022-08-23T07:01:45.072Z,2.57
2022-08-23T07:04:26.338Z,2.53
2022-08-23T07:07:13.554Z,2.37
2022-08-23T07:09:42.743Z,2.30
2022-08-23T07:12:12.366Z,2.40
2022-08-23T07:14:44.176Z,2.50
2022-08-23T07:17:14.375Z,2.30
2022-08-23T07:19:44.944Z,2.20
2022-08-23T07:22:15.640Z,2.30
2022-08-23T07:24:44.277Z,2.83
2022-08-23T07:27:16.695Z,2.60
2022-08-23T07:29:56.232Z,2.73
2022-08-23T07:32:27.516Z,2.67
2022-08-23T07:34:58.334Z,2.17
2022-08-23T07:37:31.225Z,2.30
2022-08-23T07:40:03.929Z,2.53
2022-08-23T07:42:35.638Z,2.20
2022-08-23T07:45:04.120Z,2.23
2022-08-23T07:47:34.837Z,2.10
2022-08-23T07:50:03.246Z,2.00
2022-08-23T07:52:33.520Z,2.40
2022-08-23T07:55:02.102Z,2.10
2022-08-23T07:57:45.740Z,2.00
2022-08-23T08:00:32.489Z,2.03
2022-08-23T08:03:16.227Z,2.07
2022-08-23T08:06:08.549Z,2.77
2022-08-23T08:08:36.879Z,2.63
2022-08-23T08:11:07.881Z,2.00
2022-08-23T08:13:40.485Z,1.98
2022-08-23T08:16:13.050Z,2.00
2022-08-23T08:18:43.658Z,2.25
2022-08-23T08:21:42.228Z,1.87
2022-08-23T08:24:30.795Z,2.40
2022-08-23T08:27:03.957Z,2.53
2022-08-23T08:29:36.038Z,2.13
2022-08-23T08:32:04.628Z,1.90
2022-08-23T08:34:33.342Z,1.83
2022-08-23T08:37:02.859Z,2.00
2022-08-23T08:39:34.562Z,2.33
2022-08-23T08:42:20.551Z,2.03
2022-08-23T08:44:56.207Z,2.45
2022-08-23T08:47:37.603Z,2.20
2022-08-23T08:50:16.027Z,2.00
2022-08-23T08:52:52.631Z,2.22
2022-08-23T08:55:39.903Z,1.98
2022-08-23T08:58:17.107Z,2.45
2022-08-23T09:00:47.339Z,2.58
2022-08-23T09:03:20.514Z,2.53
2022-08-23T09:05:56.381Z,2.33
2022-08-23T09:08:42.136Z,2.00
2022-08-23T09:11:23.342Z,2.40
2022-08-23T09:14:06.549Z,2.10
2022-08-23T09:16:50.776Z,2.67
2022-08-23T09:19:23.269Z,2.33
2022-08-23T09:21:58.127Z,1.98
2022-08-23T09:24:27.890Z,2.97
2022-08-23T09:27:12.652Z,2.00
2022-08-23T09:29:56.148Z,2.53
2022-08-23T09:32:32.152Z,2.47
2022-08-23T09:35:16.041Z,2.17
2022-08-23T09:37:56.973Z,2.10
2022-08-23T09:40:38.915Z,1.98
2022-08-23T09:43:15.294Z,2.13
2022-08-23T09:45:57.396Z,2.30
2022-08-23T09:48:40.918Z,2.25
2022-08-23T09:51:20.338Z,2.38
2022-08-23T09:53:53.420Z,2.30
2022-08-23T09:56:27.445Z,2.28
2022-08-23T09:58:58.181Z,2.30
2022-08-23T10:01:40.151Z,2.38
2022-08-23T10:04:17.971Z,2.83
2022-08-23T10:06:48.033Z,2.50
2022-08-23T10:09:26.430Z,2.20
2022-08-23T10:11:58.973Z,2.85
2022-08-23T10:14:30.669Z,2.85
2022-08-23T10:17:11.085Z,2.95
2022-08-23T10:19:48.509Z,2.55
2022-08-23T10:22:21.430Z,2.72
2022-08-23T10:25:16.195Z,2.45
2022-08-23T10:28:28.787Z,2.38
2022-08-23T10:31:03.325Z,2.08
2022-08-23T10:33:47.636Z,2.97
2022-08-23T10:36:24.439Z,2.10
2022-08-23T10:38:58.912Z,2.13
2022-08-23T10:41:44.577Z,1.80
2022-08-23T10:44:26.809Z,2.25
2022-08-23T10:47:11.286Z,2.30
2022-08-23T10:49:42.353Z,2.17
2022-08-23T10:52:20.116Z,2.55
2022-08-23T10:55:06.396Z,2.38
2022-08-23T10:57:38.957Z,2.42
2022-08-23T11:00:09.807Z,2.22
2022-08-23T11:02:55.654Z,2.25
2022-08-23T11:05:31.058Z,1.80
2022-08-23T11:08:06.855Z,2.50
2022-08-23T11:10:55.799Z,2.33
2022-08-23T11:13:30.199Z,2.22
2022-08-23T11:16:01.487Z,2.40
2022-08-23T11:18:41.988Z,2.40
2022-08-23T11:21:30.687Z,2.30
2022-08-23T11:24:35.071Z,2.15
2022-08-23T11:27:08.017Z,1.92
2022-08-23T11:29:44.162Z,2.10
2022-08-23T11:32:38.866Z,2.13
2022-08-23T11:35:43.048Z,2.30
2022-08-23T11:38:13.766Z,2.28
2022-08-23T11:41:22.500Z,2.15
2022-08-23T11:44:19.992Z,2.17
2022-08-23T11:47:03.586Z,2.38
2022-08-23T11:50:12.615Z,2.45
2022-08-23T11:53:15.299Z,1.90
2022-08-23T11:56:12.802Z,2.13
2022-08-23T11:59:02.560Z,2.28
2022-08-23T12:01:40.028Z,2.00
2022-08-23T12:04:11.700Z,2.55
2022-08-23T12:06:50.593Z,2.33
2022-08-23T12:09:52.171Z,2.55
2022-08-23T12:12:47.028Z,2.45
2022-08-23T12:15:18.394Z,2.08
2022-08-23T12:18:09.314Z,2.38
2022-08-23T12:20:40.594Z,2.28
2022-08-23T12:23:16.927Z,2.42
2022-08-23T12:25:45.245Z,2.72
2022-08-23T12:28:34.190Z,2.40
2022-08-23T12:31:13.284Z,2.33
2022-08-23T12:33:55.118Z,2.35
2022-08-23T12:36:32.654Z,2.70
2022-08-23T12:39:08.574Z,2.67
2022-08-23T12:41:51.982Z,2.60
2022-08-23T12:44:22.372Z,2.20
2022-08-23T12:46:55.067Z,2.10
2022-08-23T12:49:29.437Z,2.55
2022-08-23T12:52:01.405Z,2.38
2022-08-23T12:54:38.612Z,2.38
2022-08-23T12:57:11.672Z,2.30
2022-08-23T12:59:44.564Z,2.28
2022-08-23T13:02:26.093Z,1.90
2022-08-23T13:04:58.130Z,2.03
2022-08-23T13:07:27.483Z,2.20
2022-08-23T13:09:56.636Z,2.55
2022-08-23T13:12:28.873Z,2.10
2022-08-23T13:15:01.400Z,2.22
2022-08-23T13:17:39.656Z,2.60
2022-08-23T13:20:23.791Z,2.20
2022-08-23T13:23:01.705Z,2.00
2022-08-23T13:25:33.393Z,1.77
2022-08-23T13:28:04.392Z,2.00
2022-08-23T13:30:34.183Z,2.35
2022-08-23T13:33:25.054Z,1.92
2022-08-23T13:36:13.033Z,2.00
2022-08-23T13:38:43.980Z,2.20
2022-08-23T13:41:27.452Z,2.38
2022-08-23T13:43:56.100Z,1.80
2022-08-23T13:46:27.207Z,1.98
2022-08-23T13:49:03.374Z,2.03
2022-08-23T13:51:36.657Z,2.47
2022-08-23T13:54:07.586Z,2.13
2022-08-23T13:56:40.824Z,2.00
2022-08-23T13:59:20.583Z,2.05
2022-08-23T14:01:51.130Z,2.00
2022-08-23T14:04:24.123Z,2.05
2022-08-23T14:06:52.328Z,2.30
2022-08-23T14:09:23.142Z,2.50
2022-08-23T14:11:58.737Z,2.10
2022-08-23T14:14:33.580Z,2.08
2022-08-23T14:17:05.158Z,2.38
2022-08-23T14:22:23.165Z,1.98
2022-08-23T14:24:53.863Z,1.90
2022-08-23T14:27:24.463Z,2.67
2022-08-23T14:29:52.722Z,2.63
2022-08-23T14:32:21.002Z,2.78
2022-08-23T14:34:52.896Z,3.10
2022-08-23T14:38:02.001Z,2.35
2022-08-23T14:40:13.182Z,2.42
2022-08-23T14:42:44.471Z,2.20
2022-08-23T14:45:17.100Z,2.50
2022-08-23T14:47:45.374Z,2.65
2022-08-23T14:50:17.304Z,2.30
2022-08-23T14:52:48.540Z,2.35
2022-08-23T14:55:17.418Z,2.83
2022-08-23T14:57:45.686Z,2.30
2022-08-23T15:00:15.013Z,2.35
2022-08-23T15:02:45.541Z,1.90
2022-08-23T15:05:14.333Z,2.25
2022-08-23T15:07:44.137Z,2.60
2022-08-23T15:13:21.750Z,2.50
2022-08-23T15:15:57.047Z,1.98
2022-08-23T15:18:28.837Z,2.40
2022-08-23T15:20:57.098Z,2.00
2022-08-23T15:23:26.716Z,2.30
2022-08-23T15:25:55.989Z,2.17
2022-08-23T15:28:26.795Z,2.25
2022-08-23T15:30:55.335Z,2.22
2022-08-23T15:33:27.168Z,2.25
2022-08-23T15:36:03.489Z,2.42
2022-08-23T15:38:36.810Z,2.60
2022-08-23T15:41:07.918Z,2.20
2022-08-23T15:43:39.761Z,2.42
2022-08-23T15:46:13.263Z,2.40
2022-08-23T15:48:45.626Z,2.80
2022-08-23T15:51:18.013Z,2.38
2022-08-23T15:53:47.706Z,2.47
2022-08-23T15:56:22.424Z,2.45
2022-08-23T15:58:50.743Z,2.00
2022-08-23T16:01:21.778Z,2.35
2022-08-23T16:03:52.958Z,2.28
2022-08-23T16:06:21.970Z,2.10
2022-08-23T16:08:53.887Z,2.58
2022-08-23T16:11:23.026Z,2.42
2022-08-23T16:13:55.189Z,2.17
2022-08-23T16:16:26.525Z,2.63
2022-08-23T16:18:55.302Z,2.00
2022-08-23T16:21:25.250Z,2.13
2022-08-23T16:23:55.444Z,2.40
2022-08-23T16:26:34.945Z,2.28
2022-08-23T16:29:06.032Z,2.10
2022-08-23T16:31:39.803Z,2.40
2022-08-23T16:34:09.873Z,2.25
2022-08-23T16:36:39.736Z,2.25
2022-08-23T16:39:09.559Z,2.20
2022-08-23T16:41:37.962Z,2.35
2022-08-23T16:44:06.820Z,2.38
2022-08-23T16:46:35.082Z,2.28
2022-08-23T16:49:03.489Z,1.83
2022-08-23T16:51:34.380Z,2.58
2022-08-23T16:54:03.441Z,2.60
2022-08-23T16:56:34.158Z,2.05
2022-08-23T16:59:09.839Z,2.03
2022-08-23T17:01:46.084Z,2.63
2022-08-23T17:04:18.503Z,2.22
2022-08-23T17:06:49.038Z,2.25
2022-08-23T17:09:17.527Z,2.40
2022-08-23T17:11:47.277Z,2.50
2022-08-23T17:14:19.005Z,2.65
2022-08-23T17:16:47.758Z,2.17
2022-08-23T17:19:16.033Z,2.33
2022-08-23T17:21:45.114Z,2.28
2022-08-23T17:24:13.335Z,2.60
2022-08-23T17:26:41.604Z,2.33
2022-08-23T17:29:12.520Z,2.67
2022-08-23T17:31:41.716Z,2.03
2022-08-23T17:34:12.083Z,2.15
2022-08-23T17:36:46.172Z,2.25
2022-08-23T17:39:21.208Z,2.53
2022-08-23T17:41:50.061Z,2.47
2022-08-23T17:44:20.334Z,2.28
2022-08-23T17:46:48.964Z,2.40
2022-08-23T17:49:18.736Z,2.40
2022-08-23T17:51:47.141Z,2.47
2022-08-23T17:54:18.510Z,2.42
2022-08-23T17:56:50.690Z,2.72
2022-08-23T17:59:21.067Z,3.17
2022-08-23T18:01:49.628Z,3.22
2022-08-23T18:04:18.420Z,3.30
2022-08-23T18:06:49.070Z,4.03
2022-08-23T18:09:17.746Z,3.17
2022-08-23T18:11:48.582Z,3.20
2022-08-23T18:14:16.899Z,2.70
2022-08-23T18:16:47.028Z,3.13
2022-08-23T18:19:15.359Z,3.15
2022-08-23T18:21:46.706Z,3.08
2022-08-23T18:24:17.798Z,2.97
2022-08-23T18:27:06.480Z,2.80
2022-08-23T18:29:37.168Z,2.88
2022-08-23T18:32:10.598Z,2.88
2022-08-23T18:34:39.322Z,3.13
2022-08-23T18:37:08.477Z,2.72
2022-08-23T18:39:36.784Z,2.60
2022-08-23T18:42:09.221Z,2.63
2022-08-23T18:44:39.828Z,2.55
2022-08-23T18:47:09.852Z,3.08
2022-08-23T18:49:38.810Z,3.30
2022-08-23T18:52:07.671Z,2.80
2022-08-23T18:54:38.547Z,2.60
2022-08-23T18:57:07.064Z,2.60
2022-08-23T18:59:35.309Z,2.70
2022-08-23T19:02:03.666Z,2.70
2022-08-23T19:04:33.336Z,2.53
2022-08-23T19:07:01.626Z,2.78
2022-08-23T19:09:30.190Z,2.63
2022-08-23T19:12:00.288Z,3.08
2022-08-23T19:14:29.572Z,3.10
2022-08-23T19:16:57.891Z,3.40
2022-08-23T19:19:26.167Z,3.33
2022-08-23T19:21:58.421Z,3.10
2022-08-23T19:24:27.194Z,3.47
2022-08-23T19:26:55.471Z,3.20
2022-08-23T19:29:23.788Z,3.63
2022-08-23T19:31:52.678Z,3.67
2022-08-23T19:34:23.313Z,3.65
2022-08-23T19:37:00.819Z,3.42
2022-08-23T19:39:31.899Z,3.90
2022-08-23T19:42:02.619Z,3.83
2022-08-23T19:44:32.625Z,3.55
2022-08-23T19:47:00.859Z,3.15
2022-08-23T19:49:32.498Z,3.28
2022-08-23T19:52:03.713Z,3.58
2022-08-23T19:54:33.271Z,3.53
2022-08-23T19:57:08.051Z,3.35
2022-08-23T19:59:40.340Z,3.53
2022-08-23T20:02:10.076Z,3.33
2022-08-23T20:04:41.550Z,3.45
2022-08-23T20:07:12.283Z,3.30
2022-08-23T20:09:41.878Z,3.35
2022-08-23T20:12:11.497Z,3.00
2022-08-23T20:14:40.029Z,3.08
2022-08-23T20:17:08.319Z,2.90
2022-08-23T20:19:39.032Z,3.20
2022-08-23T20:22:24.430Z,2.63
2022-08-23T20:24:54.048Z,3.28
2022-08-23T20:27:31.063Z,3.05
2022-08-23T20:30:00.216Z,2.80
2022-08-23T20:32:28.634Z,2.78
2022-08-23T20:34:56.825Z,2.97
2022-08-23T20:37:27.550Z,3.00
2022-08-23T20:39:57.360Z,3.17
2022-08-23T20:42:25.733Z,3.25
2022-08-23T20:44:54.049Z,2.83
2022-08-23T20:47:22.575Z,3.28
2022-08-23T20:49:53.082Z,2.65
2022-08-23T20:52:21.273Z,3.08
2022-08-23T20:54:52.151Z,3.40
2022-08-23T20:57:21.842Z,3.25
2022-08-23T20:59:50.267Z,2.95
2022-08-23T21:02:18.541Z,3.20
2022-08-23T21:04:49.594Z,3.67
2022-08-23T21:07:18.083Z,3.10
2022-08-23T21:09:46.447Z,3.22
2022-08-23T21:12:14.645Z,3.35
2022-08-23T21:14:44.635Z,2.88
2022-08-23T21:17:15.060Z,2.92
2022-08-23T21:19:44.190Z,3.40
2022-08-23T21:22:12.395Z,2.90
2022-08-23T21:24:42.756Z,3.13
2022-08-23T21:27:10.953Z,2.83
2022-08-23T21:29:39.675Z,2.80
2022-08-23T21:32:09.419Z,2.75
2022-08-23T21:34:37.552Z,3.10
2022-08-23T21:37:05.934Z,3.60
2022-08-23T21:39:34.290Z,3.38
2022-08-23T21:42:14.746Z,3.88
2022-08-23T21:44:44.025Z,3.13
2022-08-23T21:47:14.223Z,3.70
2022-08-23T21:49:42.396Z,3.55
2022-08-23T21:52:10.598Z,3.55
2022-08-23T21:54:43.318Z,3.17
2022-08-23T21:57:11.943Z,3.60
2022-08-23T21:59:42.655Z,3.20
2022-08-23T22:02:10.912Z,3.10
2022-08-23T22:04:40.567Z,3.60
2022-08-23T22:07:09.006Z,3.20
2022-08-23T22:09:39.502Z,3.38
2022-08-23T22:12:10.447Z,3.35
2022-08-23T22:14:38.773Z,3.13
2022-08-23T22:17:07.026Z,3.22
2022-08-23T22:19:35.252Z,2.90
2022-08-23T22:22:04.910Z,3.88
2022-08-23T22:24:35.192Z,2.78
2022-08-23T22:27:03.390Z,2.72
2022-08-23T22:29:34.152Z,2.72
2022-08-23T22:32:03.083Z,2.75
2022-08-23T22:34:31.411Z,3.10
2022-08-23T22:36:59.601Z,3.10
2022-08-23T22:39:31.492Z,3.25
2022-08-23T22:41:59.778Z,3.40
2022-08-23T22:44:28.555Z,3.35
2022-08-23T22:46:58.509Z,3.47
2022-08-23T22:49:26.897Z,3.47
2022-08-23T22:51:59.147Z,3.75
2022-08-23T22:54:31.332Z,4.00
2022-08-23T22:56:59.565Z,3.75
2022-08-23T22:59:33.170Z,3.40
2022-08-23T23:02:04.165Z,3.40
2022-08-23T23:04:33.955Z,3.42
2022-08-23T23:07:05.239Z,3.30
2022-08-23T23:09:35.464Z,3.67
2022-08-23T23:12:04.027Z,3.08
2022-08-23T23:14:32.283Z,3.20
2022-08-23T23:17:00.557Z,3.63
2022-08-23T23:19:46.676Z,3.53
2022-08-23T23:22:15.087Z,3.10
2022-08-23T23:24:46.933Z,3.10
2022-08-23T23:27:15.155Z,3.20
2022-08-23T23:29:46.049Z,3.20
2022-08-23T23:32:14.760Z,3.10
2022-08-23T23:34:42.958Z,3.60
2022-08-23T23:37:11.164Z,3.50
2022-08-23T23:39:39.364Z,3.55
2022-08-23T23:42:11.154Z,3.28
2022-08-23T23:44:41.812Z,3.28
2022-08-23T23:47:09.991Z,3.20
2022-08-23T23:49:38.269Z,3.47
2022-08-23T23:52:09.239Z,3.50
2022-08-23T23:54:38.555Z,3.67
2022-08-23T23:57:08.094Z,3.55
2022-08-23T23:59:37.716Z,3.92
